Airfield :







YOU CAN JOIN US ON...

 
LOGIN :

Register | Disclaimer

   EN    FR    IT 

 









Legend :    VFR   Marginal VFR   IFR   Intensive IFR   Very Intensive IFR
Visi :
Ceiling :
>= 8 km
>= 3000ft
5 to 8 km
1000 to 3000 ft
1500m to 5 km
500 to 1000 ft
800 to 1500m
200 to 500 ft
< 800m
< 200 ft
Symbols :   Thunderstorms  Fog  Heavy snow  Heavy precipitations  Wind > 20 kt






- Airport Elevation : 1663 ft
- IATA code : SLK


KSLK - Adirondack Regional

CURRENT METAR :
  • 220324Z AUTO 22008KT 10SM OVC014 19/18 A2959 RMK AO2 T01890183

EXPIRED METARs :
  • 220251Z AUTO 22008KT 10SM OVC018 19/18 A2958 RMK AO2 SLP006 60011 T01890183 53013
  • 220201Z AUTO 23004KT 10SM BKN022 19/18 A2957 RMK AO2 T01890183
  • 220151Z AUTO 23005KT 10SM SCT022 18/18 A2956 RMK AO2 SLP001 T01830183
  • 220051Z AUTO 23003KT 10SM FEW010 19/19 A2953 RMK AO2 RAE25 SLP990 P0011 T01940194

TAF KSLK
Valid from the 22 at 02:00 until the 23 at 00:00 UTC


220209Z 2202/2224 23004KT P6SM VCSH BKN022 OVC120
FM220900 28005KT P6SM VCSH OVC009
FM221600 25005KT P6SM OVC028
FM222200 29007KT P6SM SCT050
KZBW FIR / North America



MET'MAP, your aeronautical weather chart ! - Copyright ORBIFLY December 2007 - Disclaimer

ORBIFLY MET'MAP TEAM :

Programming & Development : Alexandra Zaïnal
Concept & original design : Baudouin d'Aumeries
Assistance for programming : Marc-Olivier Méhu
Technical & hardware support : Manuel Goepfert

Contact : metmap@orbifly.com




SOURCES & CREDITS :

   NOAA